Time;durP1;ratioP1;P1;durP2;ratioP2;P2;SDS_P1;SDS_P2;PMS_P1;PMS_P2;Temp;Humidity;BMP_temperature;BMP_pressure;BME280_temperature;BME280_humidity;BME280_pressure;Samples;Min_cycle;Max_cycle;Signal;HPM_P1;HPM_P2
2021/12/11 00:01:52;;;;;;;67.32;24.48;;;;;;;1.20;87.47;100512.41;5055189;28;20033;-47
2021/12/11 00:04:31;;;;;;;65.72;23.73;;;;;;;1.16;87.60;100511.97;5055980;28;20107;-46
2021/12/11 00:06:58;;;;;;;66.78;24.00;;;;;;;1.19;87.42;100508.94;5052747;28;20212;-47
2021/12/11 00:09:31;;;;;;;62.25;23.40;;;;;;;1.19;87.40;100522.13;5052855;28;20131;-48
2021/12/11 00:12:02;;;;;;;64.18;23.08;;;;;;;1.22;87.37;100520.94;5053983;28;20029;-48
2021/12/11 00:14:31;;;;;;;61.08;24.85;;;;;;;1.23;87.02;100529.66;5055799;28;20032;-47
2021/12/11 00:16:57;;;;;;;61.58;24.50;;;;;;;1.22;86.99;100531.50;5051061;28;20037;-48
2021/12/11 00:19:29;;;;;;;67.88;26.23;;;;;;;1.18;87.21;100532.88;5057769;28;20029;-47
2021/12/11 00:22:04;;;;;;;69.43;25.25;;;;;;;1.17;86.92;100540.00;5053669;28;20024;-48
2021/12/11 00:24:33;;;;;;;67.22;23.75;;;;;;;1.18;87.04;100543.44;5054932;28;20028;-47
2021/12/11 00:27:05;;;;;;;66.78;24.17;;;;;;;1.12;87.13;100544.22;5062264;22;20420;-58
2021/12/11 00:29:32;;;;;;;65.28;24.25;;;;;;;1.12;87.23;100554.78;5032789;28;20029;-54
2021/12/11 00:32:07;;;;;;;64.90;23.67;;;;;;;1.10;87.43;100560.25;5031902;28;20014;-56
2021/12/11 00:34:34;;;;;;;68.68;23.67;;;;;;;1.14;87.35;100553.56;5034482;28;20120;-54
2021/12/11 00:37:05;;;;;;;68.47;26.10;;;;;;;1.14;87.29;100550.94;5039572;28;20024;-58
2021/12/11 00:39:37;;;;;;;74.28;24.65;;;;;;;1.17;86.91;100550.53;5031778;28;20239;-56
2021/12/11 00:42:07;;;;;;;65.43;25.90;;;;;;;1.18;87.05;100548.72;5033295;28;20039;-57
2021/12/11 00:44:39;;;;;;;69.50;24.75;;;;;;;1.18;87.17;100551.34;5033996;28;20029;-56
2021/12/11 00:47:18;;;;;;;72.07;26.17;;;;;;;1.15;86.78;100557.84;5044994;28;20032;-56
2021/12/11 00:49:57;;;;;;;73.40;24.77;;;;;;;1.13;87.00;100559.03;5031509;28;20030;-57
2021/12/11 00:52:50;;;;;;;70.47;24.85;;;;;;;1.15;86.98;100564.94;5030237;28;20032;-57
2021/12/11 00:55:30;;;;;;;71.13;23.90;;;;;;;1.12;87.01;100562.69;5026877;28;20127;-57
2021/12/11 00:58:02;;;;;;;75.85;26.15;;;;;;;1.13;86.92;100574.88;5032082;28;20037;-56
2021/12/11 01:00:28;;;;;;;78.70;26.02;;;;;;;1.12;87.06;100581.97;5032384;28;20108;-54
2021/12/11 01:02:56;;;;;;;73.13;24.83;;;;;;;1.15;87.19;100583.41;5034836;28;20078;-56
2021/12/11 01:05:24;;;;;;;69.93;26.30;;;;;;;1.12;87.31;100589.06;5030600;28;20362;-56
2021/12/11 01:07:50;;;;;;;68.25;25.08;;;;;;;1.10;87.16;100601.66;5038655;28;20037;-56
2021/12/11 01:10:25;;;;;;;69.47;24.55;;;;;;;1.03;86.69;100608.66;5032078;28;20024;-55
2021/12/11 01:13:00;;;;;;;;;;;;;;;0.87;86.85;100605.28;5029455;28;20112;-52
2021/12/11 01:15:49;;;;;;;69.72;25.45;;;;;;;0.74;87.44;100606.97;5030793;28;19978;-54
2021/12/11 01:21:01;;;;;;;76.85;26.58;;;;;;;0.68;87.77;100613.78;5032176;28;20075;-54
2021/12/11 01:25:59;;;;;;;66.15;23.27;;;;;;;0.55;89.50;100621.59;5032010;28;20116;-54
2021/12/11 01:28:25;;;;;;;68.68;23.33;;;;;;;0.62;88.38;100619.00;5036258;28;20021;-52
2021/12/11 01:30:51;;;;;;;70.72;24.77;;;;;;;0.53;89.00;100618.28;5035333;28;20025;-54
2021/12/11 01:33:17;;;;;;;75.57;23.33;;;;;;;0.56;89.01;100631.94;5038232;28;20029;-53
2021/12/11 01:35:43;;;;;;;72.28;25.27;;;;;;;0.55;88.78;100635.59;5037850;28;20035;-54
2021/12/11 01:38:19;;;;;;;73.85;23.20;;;;;;;0.52;88.75;100630.66;5041542;28;20055;-53
2021/12/11 01:40:47;;;;;;;72.00;23.45;;;;;;;0.57;89.39;100638.84;5036969;28;20021;-54
2021/12/11 01:43:13;;;;;;;72.47;25.05;;;;;;;0.65;89.32;100632.63;5038421;28;20052;-53
2021/12/11 01:45:44;;;;;;;70.63;24.45;;;;;;;0.70;89.32;100646.06;5033238;28;20048;-51
2021/12/11 01:48:10;;;;;;;71.50;23.65;;;;;;;0.76;89.22;100655.91;5037044;28;20040;-53
2021/12/11 01:50:43;;;;;;;68.03;24.45;;;;;;;0.80;89.03;100661.59;5034607;28;20029;-52
2021/12/11 01:53:15;;;;;;;69.00;25.83;;;;;;;0.82;88.84;100662.22;5033977;28;20403;-54
2021/12/11 01:55:58;;;;;;;61.60;21.52;;;;;;;0.86;88.77;100671.41;5034832;28;20028;-52
2021/12/11 01:58:35;;;;;;;68.20;23.55;;;;;;;0.85;88.74;100670.59;5030063;28;20025;-52
2021/12/11 02:01:11;;;;;;;68.88;25.50;;;;;;;0.87;88.57;100670.41;5033565;28;20484;-55
2021/12/11 02:03:36;;;;;;;72.70;25.63;;;;;;;0.88;88.28;100669.41;5035783;28;20381;-52
2021/12/11 02:06:03;;;;;;;71.70;24.85;;;;;;;0.80;87.98;100669.53;5032998;28;20041;-53
2021/12/11 02:08:33;;;;;;;72.25;25.52;;;;;;;0.70;88.06;100674.25;5033319;28;20148;-52
2021/12/11 02:11:10;;;;;;;69.47;24.63;;;;;;;0.65;88.32;100677.47;5035571;28;20033;-55
2021/12/11 02:13:51;;;;;;;77.82;25.83;;;;;;;0.56;88.61;100681.22;5038263;28;20037;-53
2021/12/11 02:16:32;;;;;;;69.07;23.35;;;;;;;0.54;88.48;100685.88;5032088;28;20022;-55
2021/12/11 02:19:08;;;;;;;82.13;26.40;;;;;;;0.44;88.42;100680.03;5033751;28;20049;-55
2021/12/11 02:21:56;;;;;;;76.50;25.98;;;;;;;0.32;89.06;100692.84;5035004;28;20402;-56
2021/12/11 02:24:25;;;;;;;80.40;25.13;;;;;;;0.32;89.85;100708.66;5032535;28;20071;-52
2021/12/11 02:26:54;;;;;;;76.22;24.63;;;;;;;0.33;90.69;100706.84;5037772;28;20116;-54
2021/12/11 02:29:36;;;;;;;75.35;26.25;;;;;;;0.39;90.44;100714.88;5034710;28;20215;-55
2021/12/11 02:32:17;;;;;;;61.42;23.42;;;;;;;0.41;90.96;100710.22;5035208;28;20033;-56
2021/12/11 02:34:54;;;;;;;55.40;19.77;;;;;;;0.48;90.78;100716.38;5039400;28;20102;-53
2021/12/11 02:37:35;;;;;;;63.70;21.55;;;;;;;0.50;90.59;100703.84;5031244;28;20029;-54
2021/12/11 02:40:06;;;;;;;57.70;21.60;;;;;;;0.54;90.29;100709.59;5037666;28;20033;-55
2021/12/11 02:42:38;;;;;;;51.88;19.27;;;;;;;0.56;90.24;100710.22;5037970;28;20067;-55
2021/12/11 02:45:37;;;;;;;48.20;17.85;;;;;;;0.55;89.58;100713.84;5037430;28;20029;-53
2021/12/11 02:48:11;;;;;;;53.45;19.55;;;;;;;0.48;89.62;100721.66;5026968;28;20048;-53
2021/12/11 02:50:44;;;;;;;46.30;18.90;;;;;;;0.44;89.61;100725.66;5035762;28;20437;-53
2021/12/11 02:53:21;;;;;;;54.83;18.83;;;;;;;0.41;89.30;100726.03;5035184;28;20485;-54
2021/12/11 02:55:56;;;;;;;51.28;19.85;;;;;;;0.32;88.94;100728.94;5032973;28;20500;-54
2021/12/11 02:58:30;;;;;;;44.05;16.38;;;;;;;0.21;88.89;100730.22;5036578;28;20488;-53
2021/12/11 03:00:57;;;;;;;44.72;16.75;;;;;;;0.07;89.66;100731.81;5037592;28;20029;-53
2021/12/11 03:03:31;;;;;;;48.85;17.27;;;;;;;0.00;89.90;100736.19;5033850;28;20021;-53
2021/12/11 03:06:18;;;;;;;53.97;19.10;;;;;;;-0.05;90.47;100744.59;5035008;28;20115;-52
2021/12/11 03:08:47;;;;;;;45.13;16.52;;;;;;;-0.03;89.82;100752.31;5032323;28;20321;-54
2021/12/11 03:11:16;;;;;;;46.85;17.27;;;;;;;-0.04;90.22;100745.41;5034949;28;20025;-56
2021/12/11 03:13:50;;;;;;;47.13;17.75;;;;;;;-0.08;90.30;100757.31;5034648;28;20025;-55
2021/12/11 03:16:19;;;;;;;52.60;19.40;;;;;;;0.01;91.16;100760.72;5034398;28;20032;-56
2021/12/11 03:18:45;;;;;;;46.92;18.27;;;;;;;0.09;91.23;100763.25;5039302;28;20553;-53
2021/12/11 03:21:11;;;;;;;45.15;18.52;;;;;;;0.20;91.07;100755.75;5032887;28;20412;-54
2021/12/11 03:23:37;;;;;;;50.75;17.05;;;;;;;0.28;90.80;100754.84;5035198;28;20051;-56
2021/12/11 03:26:02;;;;;;;37.85;15.68;;;;;;;0.35;90.60;100749.66;5033159;28;20392;-55
2021/12/11 03:28:28;;;;;;;54.00;16.42;;;;;;;0.35;90.07;100757.56;5036158;28;20035;-53
2021/12/11 03:30:59;;;;;;;45.17;17.75;;;;;;;0.23;89.79;100763.28;5032035;28;20029;-53
2021/12/11 03:33:29;;;;;;;53.28;18.92;;;;;;;0.19;89.63;100761.19;5034471;28;20023;-53
2021/12/11 03:35:55;;;;;;;50.88;16.42;;;;;;;0.08;89.00;100759.81;5036623;28;20052;-54
2021/12/11 03:38:23;;;;;;;48.75;18.35;;;;;;;-0.07;89.70;100762.41;5032590;28;20123;-55
2021/12/11 03:40:49;;;;;;;49.88;16.88;;;;;;;-0.12;89.99;100772.66;5037249;28;20036;-53
2021/12/11 03:43:18;;;;;;;52.78;16.63;;;;;;;-0.14;90.01;100768.56;5031913;28;20070;-55
2021/12/11 03:45:46;;;;;;;49.47;17.17;;;;;;;-0.14;89.90;100774.66;5034916;28;20087;-55
2021/12/11 03:48:20;;;;;;;43.65;15.77;;;;;;;-0.21;90.21;100783.44;5031339;28;20475;-55
2021/12/11 03:50:47;;;;;;;46.83;17.38;;;;;;;-0.15;90.17;100788.00;5036610;28;20033;-55
2021/12/11 03:53:14;;;;;;;48.15;14.88;;;;;;;-0.13;90.19;100791.28;5031183;28;20030;-52
2021/12/11 03:55:46;;;;;;;55.70;17.35;;;;;;;-0.17;89.96;100796.09;5033557;28;20083;-55
2021/12/11 03:58:12;;;;;;;50.88;15.45;;;;;;;-0.21;89.82;100807.94;5033507;28;20028;-55
2021/12/11 04:00:49;;;;;;;58.60;18.17;;;;;;;-0.33;89.79;100804.94;5032053;28;20037;-56
2021/12/11 04:03:17;;;;;;;37.88;15.15;;;;;;;-0.37;89.96;100806.25;5032144;28;20583;-55
2021/12/11 04:05:46;;;;;;;54.63;16.92;;;;;;;-0.40;90.30;100809.22;5035492;28;20503;-55
2021/12/11 04:08:17;;;;;;;48.97;16.95;;;;;;;-0.44;90.25;100810.59;5038998;28;20020;-53
2021/12/11 04:10:43;;;;;;;45.85;15.27;;;;;;;-0.51;90.96;100814.91;5031881;28;20029;-56
2021/12/11 04:13:10;;;;;;;51.97;18.45;;;;;;;-0.50;91.30;100816.56;5036367;28;20267;-55
2021/12/11 04:15:37;;;;;;;45.88;16.33;;;;;;;-0.40;91.64;100819.75;5028948;28;20124;-53
2021/12/11 04:18:05;;;;;;;47.08;17.98;;;;;;;-0.27;92.12;100819.19;5034240;28;20033;-52
2021/12/11 04:20:31;;;;;;;46.13;16.08;;;;;;;-0.14;92.17;100835.22;5030027;28;20031;-52
2021/12/11 04:22:56;;;;;;;45.78;16.67;;;;;;;-0.02;91.98;100832.97;5032504;28;20025;-52
2021/12/11 04:25:26;;;;;;;41.63;17.33;;;;;;;0.07;91.60;100837.22;5029982;28;20408;-54
2021/12/11 04:27:53;;;;;;;45.38;16.58;;;;;;;0.16;91.32;100845.84;5035962;28;20021;-56
2021/12/11 04:30:21;;;;;;;44.00;17.02;;;;;;;0.13;91.00;100844.38;5030115;28;20087;-52
2021/12/11 04:32:48;;;;;;;37.85;16.15;;;;;;;0.19;90.83;100853.44;5032623;28;20389;-55
2021/12/11 04:35:15;;;;;;;42.45;16.63;;;;;;;0.23;90.42;100862.59;5031109;28;20028;-55
2021/12/11 04:37:41;;;;;;;38.85;15.77;;;;;;;0.27;90.46;100858.59;5028505;28;20025;-52
2021/12/11 04:40:31;;;;;;;34.42;14.50;;;;;;;0.34;90.31;100863.97;5033628;28;20029;-56
2021/12/11 04:43:04;;;;;;;42.30;16.08;;;;;;;0.32;89.79;100871.25;5033761;28;20100;-53
2021/12/11 04:45:40;;;;;;;34.58;13.98;;;;;;;0.31;89.79;100873.06;5033766;28;20527;-53
2021/12/11 04:48:47;;;;;;;37.95;15.10;;;;;;;0.31;89.81;100875.69;5031833;28;20546;-54
2021/12/11 04:51:19;;;;;;;38.20;15.35;;;;;;;0.36;89.43;100880.44;5032481;28;20044;-55
2021/12/11 05:01:47;;;;;;;35.10;12.82;;;;;;;0.18;88.79;100902.66;5033318;28;20040;-55
2021/12/11 05:12:13;;;;;;;;;;;;;;;0.15;89.27;100924.06;5036307;28;20051;-52
2021/12/11 05:14:40;;;;;;;39.75;15.20;;;;;;;0.20;89.39;100929.66;5033540;28;19944;-53
2021/12/11 05:17:07;;;;;;;33.35;14.43;;;;;;;0.30;89.30;100938.13;5033563;28;20033;-55
2021/12/11 05:19:33;;;;;;;37.95;16.13;;;;;;;0.34;89.40;100929.88;5029095;28;20111;-53
2021/12/11 05:22:01;;;;;;;43.10;16.70;;;;;;;0.39;88.77;100935.44;5032821;28;20024;-55
2021/12/11 05:24:27;;;;;;;50.85;17.50;;;;;;;0.42;88.83;100935.09;5027834;28;20037;-52
2021/12/11 05:26:53;;;;;;;46.33;17.00;;;;;;;0.47;88.71;100954.66;5034943;28;20527;-53
2021/12/11 05:29:19;;;;;;;44.08;15.68;;;;;;;0.43;88.25;100953.38;5034466;28;20401;-54
2021/12/11 05:31:45;;;;;;;46.78;17.15;;;;;;;0.38;88.27;100960.16;5035269;28;20029;-54
2021/12/11 05:34:11;;;;;;;45.55;16.40;;;;;;;0.38;88.44;100955.72;5033084;28;20060;-53
2021/12/11 05:36:37;;;;;;;50.83;17.17;;;;;;;0.39;88.28;100957.34;5034636;28;20588;-52
2021/12/11 05:39:10;;;;;;;44.42;18.15;;;;;;;0.44;88.46;100964.72;5029200;28;20029;-55
2021/12/11 05:41:36;;;;;;;45.17;16.13;;;;;;;0.46;88.28;100968.81;5029917;28;20435;-54
2021/12/11 05:44:03;;;;;;;47.80;17.13;;;;;;;0.48;88.34;100964.19;5028826;28;20043;-55
2021/12/11 05:46:28;;;;;;;48.47;16.50;;;;;;;0.48;88.14;100973.91;5029567;28;20118;-56
2021/12/11 05:48:54;;;;;;;52.72;18.25;;;;;;;0.49;87.93;100972.91;5031103;28;20105;-55
2021/12/11 05:51:22;;;;;;;50.50;18.10;;;;;;;0.37;87.34;100980.44;5031076;28;20071;-56
2021/12/11 05:53:53;;;;;;;47.47;16.30;;;;;;;0.22;87.10;100982.19;5030029;28;20187;-54
2021/12/11 05:56:19;;;;;;;44.78;16.65;;;;;;;-0.02;88.10;100988.41;5029843;28;20398;-55
2021/12/11 06:01:17;;;;;;;50.15;17.77;;;;;;;-0.09;88.58;100996.19;5034225;28;20025;-54
2021/12/11 06:03:43;;;;;;;38.58;15.18;;;;;;;-0.09;88.80;100998.81;5033943;28;20052;-54
2021/12/11 06:06:09;;;;;;;42.47;17.38;;;;;;;-0.19;89.21;100994.72;5031468;28;20053;-52
2021/12/11 06:08:35;;;;;;;38.03;14.63;;;;;;;-0.17;89.33;100998.88;5037103;28;20040;-55
2021/12/11 06:11:03;;;;;;;46.13;16.55;;;;;;;-0.16;88.96;100997.06;5034742;28;20413;-54
2021/12/11 06:13:30;;;;;;;43.22;15.63;;;;;;;-0.09;89.08;101003.25;5039102;28;20021;-56
2021/12/11 06:15:57;;;;;;;39.28;15.80;;;;;;;-0.08;89.46;101007.53;5035500;28;20036;-52
2021/12/11 06:18:23;;;;;;;43.63;15.43;;;;;;;-0.02;89.19;101012.09;5035354;28;20025;-55
2021/12/11 06:20:49;;;;;;;44.42;15.38;;;;;;;-0.13;88.85;101010.69;5031390;28;20124;-54
2021/12/11 06:23:15;;;;;;;39.47;14.48;;;;;;;-0.18;88.49;101013.03;5031624;28;20100;-56
2021/12/11 06:25:41;;;;;;;42.80;17.50;;;;;;;-0.31;88.26;101018.81;5034414;28;20412;-52
2021/12/11 06:28:08;;;;;;;35.85;13.85;;;;;;;-0.42;89.36;101016.56;5035461;28;20049;-53
2021/12/11 06:30:36;;;;;;;36.78;14.75;;;;;;;-0.46;89.60;101024.97;5036220;28;20032;-52
2021/12/11 06:33:05;;;;;;;40.70;15.77;;;;;;;-0.47;90.22;101024.16;5030472;28;20614;-53
2021/12/11 06:35:46;;;;;;;35.70;14.50;;;;;;;-0.36;90.56;101031.69;5034331;28;20487;-53
2021/12/11 06:38:14;;;;;;;42.92;14.82;;;;;;;-0.27;90.08;101029.00;5033982;28;20289;-52
2021/12/11 06:40:40;;;;;;;45.08;14.00;;;;;;;-0.29;89.10;101029.19;5034319;28;20103;-54
2021/12/11 06:43:06;;;;;;;40.50;13.85;;;;;;;-0.36;89.75;101044.84;5036725;28;20119;-53
2021/12/11 06:45:32;;;;;;;33.38;13.88;;;;;;;-0.37;89.88;101045.81;5037117;28;20022;-54
2021/12/11 06:47:58;;;;;;;37.53;11.27;;;;;;;-0.40;89.21;101051.44;5036102;28;20336;-56
2021/12/11 06:50:24;;;;;;;31.13;12.55;;;;;;;-0.52;89.69;101060.69;5031450;28;20025;-52
2021/12/11 06:52:51;;;;;;;33.45;13.27;;;;;;;-0.53;89.25;101066.94;5037178;28;20027;-54
2021/12/11 06:55:17;;;;;;;34.47;12.32;;;;;;;-0.56;89.55;101074.31;5036321;28;20057;-55
2021/12/11 06:57:46;;;;;;;35.88;13.52;;;;;;;-0.55;90.21;101071.53;5034433;28;20029;-56
2021/12/11 07:00:14;;;;;;;30.55;14.05;;;;;;;-0.54;90.03;101065.28;5034688;28;20029;-54
2021/12/11 07:02:40;;;;;;;32.28;11.55;;;;;;;-0.46;89.53;101072.34;5036498;28;20017;-52
2021/12/11 07:05:06;;;;;;;32.97;12.45;;;;;;;-0.48;89.46;101085.69;5034659;28;20025;-54
2021/12/11 07:07:34;;;;;;;33.92;12.88;;;;;;;-0.56;89.44;101085.69;5029278;28;20033;-54
2021/12/11 07:10:03;;;;;;;32.28;12.52;;;;;;;-0.61;89.22;101085.38;5033297;28;20245;-55
2021/12/11 07:12:29;;;;;;;36.58;13.10;;;;;;;-0.74;90.15;101092.94;5033751;28;20098;-52
2021/12/11 07:14:55;;;;;;;32.20;13.43;;;;;;;-0.65;89.94;101092.78;5037981;28;20500;-55
2021/12/11 07:17:21;;;;;;;28.17;11.43;;;;;;;-0.63;90.23;101087.34;5034265;28;20036;-53
2021/12/11 07:19:47;;;;;;;31.65;12.93;;;;;;;-0.51;90.58;101093.09;5038791;28;20491;-55
2021/12/11 07:22:14;;;;;;;32.90;14.27;;;;;;;-0.42;90.48;101094.72;5035116;28;20033;-54
2021/12/11 07:24:56;;;;;;;33.28;12.43;;;;;;;-0.38;90.12;101094.19;5032808;28;20033;-53
2021/12/11 07:27:22;;;;;;;31.88;12.07;;;;;;;-0.29;90.16;101100.28;5035139;28;20024;-54
2021/12/11 07:29:47;;;;;;;33.67;12.60;;;;;;;-0.27;89.37;101106.19;5036499;28;20028;-55
2021/12/11 07:32:13;;;;;;;33.40;12.25;;;;;;;-0.29;89.82;101116.06;5032365;28;20029;-53
2021/12/11 07:34:40;;;;;;;33.22;14.38;;;;;;;-0.26;89.74;101123.63;5034183;28;20052;-55
2021/12/11 07:37:06;;;;;;;29.73;13.23;;;;;;;-0.18;89.71;101133.31;5033424;28;20091;-53
2021/12/11 07:39:31;;;;;;;35.35;12.70;;;;;;;-0.19;89.22;101144.84;5032713;28;20021;-54
2021/12/11 07:41:58;;;;;;;32.17;12.82;;;;;;;-0.16;89.62;101142.72;5034763;28;20029;-55
2021/12/11 07:44:25;;;;;;;35.35;13.02;;;;;;;-0.09;88.99;101159.47;5032181;28;20033;-55
2021/12/11 07:46:52;;;;;;;30.67;11.70;;;;;;;-0.14;88.55;101161.81;5035237;28;20480;-53
2021/12/11 07:49:18;;;;;;;30.50;11.43;;;;;;;-0.25;88.20;101161.31;5029760;28;20032;-56
2021/12/11 07:51:45;;;;;;;29.92;12.23;;;;;;;-0.35;88.33;101175.50;5031234;28;20440;-55
2021/12/11 07:54:11;;;;;;;33.50;14.25;;;;;;;-0.44;88.42;101178.28;5033833;28;20297;-54
2021/12/11 07:56:37;;;;;;;30.45;12.30;;;;;;;-0.40;89.27;101176.97;5034737;28;20211;-54
2021/12/11 07:59:06;;;;;;;36.28;13.45;;;;;;;-0.43;88.78;101193.91;5033127;28;20033;-55
2021/12/11 08:01:35;;;;;;;30.80;12.43;;;;;;;-0.51;89.12;101190.47;5034947;28;20060;-53
2021/12/11 08:04:02;;;;;;;28.65;12.60;;;;;;;-0.48;89.64;101188.34;5025846;28;20029;-56
2021/12/11 08:06:29;;;;;;;35.00;11.82;;;;;;;-0.42;89.58;101189.47;5031272;28;20039;-54
2021/12/11 08:08:55;;;;;;;31.55;11.52;;;;;;;-0.46;89.08;101194.25;5036835;28;20107;-52
2021/12/11 08:11:21;;;;;;;32.47;12.93;;;;;;;-0.54;88.83;101188.97;5034218;28;20175;-53
2021/12/11 08:13:50;;;;;;;25.60;12.10;;;;;;;-0.62;88.97;101189.00;5032835;28;20031;-52
2021/12/11 08:16:22;;;;;;;29.30;12.18;;;;;;;-0.71;89.43;101201.34;5038762;28;20725;-54
2021/12/11 08:18:50;;;;;;;30.95;12.25;;;;;;;-0.67;90.48;101207.09;5037903;28;20116;-53
2021/12/11 08:21:16;;;;;;;33.05;11.88;;;;;;;-0.54;90.18;101207.41;5032421;28;20029;-56
2021/12/11 08:23:44;;;;;;;28.02;12.57;;;;;;;-0.49;89.99;101213.03;5034981;28;20021;-52
2021/12/11 08:26:15;;;;;;;24.02;11.05;;;;;;;-0.44;89.60;101220.41;5031527;28;20021;-52
2021/12/11 08:28:41;;;;;;;28.60;12.20;;;;;;;-0.44;89.63;101218.59;5035639;28;20179;-53
2021/12/11 08:31:07;;;;;;;30.27;12.75;;;;;;;-0.41;89.53;101228.78;5027837;28;20382;-53
2021/12/11 08:33:32;;;;;;;29.60;12.98;;;;;;;-0.39;89.49;101234.72;5037605;28;20039;-54
2021/12/11 08:35:58;;;;;;;30.20;12.93;;;;;;;-0.31;89.60;101228.66;5036620;28;20029;-54
2021/12/11 08:38:24;;;;;;;27.50;12.02;;;;;;;-0.23;89.53;101240.97;5038104;28;20079;-55
2021/12/11 08:40:57;;;;;;;30.33;12.18;;;;;;;-0.17;89.24;101238.53;5030651;28;20519;-54
2021/12/11 08:43:24;;;;;;;32.80;13.20;;;;;;;-0.09;89.01;101238.50;5043072;28;20029;-53
2021/12/11 08:46:08;;;;;;;29.92;11.80;;;;;;;-0.11;88.48;101239.66;5031189;28;20522;-54
2021/12/11 08:48:36;;;;;;;31.38;12.75;;;;;;;-0.19;87.78;101242.28;5033847;28;20455;-54
2021/12/11 08:51:16;;;;;;;28.88;12.43;;;;;;;-0.32;87.84;101253.34;5032449;28;20053;-54
2021/12/11 08:53:41;;;;;;;26.73;10.77;;;;;;;-0.41;88.31;101257.75;5033437;28;20587;-53
2021/12/11 08:56:10;;;;;;;37.22;12.93;;;;;;;-0.40;88.41;101264.66;5033018;28;20033;-54
2021/12/11 08:58:38;;;;;;;29.58;11.85;;;;;;;-0.35;88.93;101265.03;5035113;28;20132;-53
2021/12/11 09:01:16;;;;;;;30.25;12.00;;;;;;;-0.25;88.94;101270.09;5039353;28;20459;-55
2021/12/11 09:03:48;;;;;;;25.65;11.63;;;;;;;-0.18;88.96;101265.00;5034901;28;20024;-56
2021/12/11 09:06:28;;;;;;;26.65;11.30;;;;;;;-0.15;87.57;101269.97;5034162;28;20021;-55
2021/12/11 09:09:04;;;;;;;31.63;13.05;;;;;;;-0.25;87.85;101287.72;5030907;28;20509;-53
2021/12/11 09:11:46;;;;;;;36.90;13.80;;;;;;;-0.36;88.17;101284.44;5034823;28;20078;-52
2021/12/11 09:14:17;;;;;;;30.02;11.35;;;;;;;-0.33;88.61;101289.38;5041073;28;20165;-53
2021/12/11 09:16:52;;;;;;;29.35;12.98;;;;;;;-0.28;88.03;101288.06;5040829;28;20040;-54
2021/12/11 09:19:27;;;;;;;38.50;13.63;;;;;;;-0.39;87.83;101294.44;5044134;28;20021;-52
2021/12/11 09:22:20;;;;;;;34.63;12.80;;;;;;;-0.44;88.06;101286.22;5033271;28;20060;-54
2021/12/11 09:25:15;;;;;;;39.03;12.65;;;;;;;-0.43;88.33;101299.22;5033855;28;20028;-54
2021/12/11 09:27:55;;;;;;;30.50;11.43;;;;;;;-0.40;88.59;101298.91;5032795;28;20037;-53
2021/12/11 09:30:30;;;;;;;34.17;13.48;;;;;;;-0.44;88.92;101305.47;5031960;28;20033;-53
2021/12/11 09:33:04;;;;;;;36.20;14.75;;;;;;;-0.37;89.21;101309.09;5036260;28;20044;-56
2021/12/11 09:35:50;;;;;;;42.38;13.43;;;;;;;-0.26;89.38;101304.50;5028974;28;20032;-53
2021/12/11 09:38:24;;;;;;;32.05;13.50;;;;;;;-0.15;89.05;101307.66;5032496;28;20056;-56
2021/12/11 09:40:56;;;;;;;40.10;13.48;;;;;;;-0.07;88.47;101293.66;5034414;28;20090;-52
2021/12/11 09:43:53;;;;;;;34.72;13.40;;;;;;;-0.10;87.84;101305.34;5035901;28;20029;-55
2021/12/11 09:46:25;;;;;;;37.85;13.20;;;;;;;-0.16;88.25;101305.19;5032846;28;20124;-55
2021/12/11 09:48:53;;;;;;;35.22;13.20;;;;;;;-0.15;88.47;101312.09;5034111;28;20481;-55
2021/12/11 09:51:25;;;;;;;40.05;15.27;;;;;;;-0.05;88.50;101312.75;5044489;28;20025;-52
2021/12/11 09:53:56;;;;;;;34.10;12.63;;;;;;;0.01;88.53;101327.91;5040775;28;20027;-53
2021/12/11 09:56:33;;;;;;;42.47;15.80;;;;;;;0.06;88.37;101332.69;5047755;28;20596;-52
2021/12/11 09:59:02;;;;;;;43.97;16.25;;;;;;;0.13;88.23;101321.28;5038534;28;20087;-54
2021/12/11 10:01:33;;;;;;;34.47;15.00;;;;;;;0.22;88.15;101322.13;5039923;28;20091;-54
2021/12/11 10:04:09;;;;;;;32.22;12.40;;;;;;;0.32;88.08;101335.13;5036855;28;20028;-53
2021/12/11 10:09:18;;;;;;;33.13;12.00;;;;;;;0.40;87.42;101345.66;5043681;28;20487;-56
2021/12/11 10:11:55;;;;;;;34.70;12.98;;;;;;;0.39;87.55;101344.03;5031530;28;20029;-55
2021/12/11 10:14:32;;;;;;;29.65;12.48;;;;;;;0.39;87.14;101341.38;5031343;28;20359;-53
2021/12/11 10:16:59;;;;;;;31.02;12.55;;;;;;;0.44;87.21;101333.78;5038602;28;20421;-52
2021/12/11 10:19:29;;;;;;;39.28;14.13;;;;;;;0.46;87.14;101337.91;5038675;28;20060;-57
2021/12/11 10:22:04;;;;;;;32.22;12.82;;;;;;;0.50;86.85;101349.75;5040203;28;20060;-55
2021/12/11 10:24:33;;;;;;;33.17;14.13;;;;;;;0.55;86.61;101362.47;5035043;28;20124;-54
2021/12/11 10:27:02;;;;;;;31.65;13.00;;;;;;;0.53;86.44;101359.97;5043450;28;20036;-53
2021/12/11 10:29:27;;;;;;;29.95;11.40;;;;;;;0.58;86.24;101354.22;5033745;28;20168;-55
2021/12/11 10:32:00;;;;;;;36.55;13.75;;;;;;;0.56;86.12;101364.94;5039683;28;20404;-52
2021/12/11 10:34:29;;;;;;;35.97;14.07;;;;;;;0.57;86.14;101358.66;5037413;28;20629;-53
2021/12/11 10:37:11;;;;;;;34.17;12.45;;;;;;;0.59;86.05;101369.03;5040029;28;20126;-53
2021/12/11 10:39:42;;;;;;;37.15;13.73;;;;;;;0.65;86.13;101373.63;5037174;28;20028;-53
2021/12/11 10:42:08;;;;;;;29.35;12.38;;;;;;;0.66;85.82;101375.28;5037296;28;20103;-53
2021/12/11 10:44:40;;;;;;;24.60;11.60;;;;;;;0.71;85.71;101378.22;5035959;28;20159;-52
2021/12/11 10:47:23;;;;;;;34.58;12.57;;;;;;;0.78;85.88;101387.13;5034218;28;20044;-56
2021/12/11 10:49:51;;;;;;;29.13;11.02;;;;;;;0.83;85.48;101389.25;5031830;28;20488;-53
2021/12/11 10:52:21;;;;;;;27.15;11.13;;;;;;;0.83;85.31;101390.06;5031434;28;20025;-55
2021/12/11 10:54:48;;;;;;;32.08;12.45;;;;;;;0.75;84.85;101391.94;5033381;28;20461;-55
2021/12/11 10:57:16;;;;;;;28.02;12.20;;;;;;;0.79;84.90;101388.78;5035866;28;20029;-53
2021/12/11 10:59:45;;;;;;;27.90;11.27;;;;;;;0.79;84.91;101383.50;5034732;28;20549;-54
2021/12/11 11:02:17;;;;;;;29.20;11.15;;;;;;;0.78;84.83;101392.41;5028331;28;20025;-56
2021/12/11 11:04:47;;;;;;;36.70;12.52;;;;;;;0.76;84.70;101393.56;5036640;28;20514;-54
2021/12/11 11:07:13;;;;;;;27.23;10.32;;;;;;;0.75;84.93;101405.13;5032223;28;20025;-56
2021/12/11 11:09:40;;;;;;;32.65;11.60;;;;;;;0.75;84.90;101405.94;5036539;28;20039;-53
2021/12/11 11:12:11;;;;;;;28.67;11.13;;;;;;;0.78;84.84;101416.16;5032493;28;20089;-55
2021/12/11 11:14:37;;;;;;;29.70;11.52;;;;;;;0.79;84.91;101415.16;5035446;28;20059;-53
2021/12/11 11:17:07;;;;;;;28.83;11.68;;;;;;;0.81;84.98;101423.72;5034654;28;20039;-53
2021/12/11 11:19:38;;;;;;;33.28;12.43;;;;;;;0.82;84.83;101424.53;5032186;28;20025;-52
2021/12/11 11:22:07;;;;;;;33.30;12.20;;;;;;;0.80;84.98;101427.34;5038148;28;20116;-52
2021/12/11 11:24:37;;;;;;;29.10;11.55;;;;;;;0.85;85.29;101437.41;5033637;28;20562;-52
2021/12/11 11:27:06;;;;;;;33.90;11.63;;;;;;;0.86;85.18;101434.59;5036584;28;20412;-54
2021/12/11 11:29:31;;;;;;;38.20;13.52;;;;;;;0.86;85.10;101439.03;5029708;28;20108;-52
2021/12/11 11:32:01;;;;;;;37.92;13.57;;;;;;;0.87;86.72;101449.41;5035221;28;20037;-58
2021/12/11 11:34:29;;;;;;;38.13;13.20;;;;;;;1.02;86.50;101452.19;5039004;28;20047;-56
2021/12/11 11:37:02;;;;;;;32.90;12.68;;;;;;;1.28;88.75;101454.63;5033998;28;21302;-53
2021/12/11 11:39:29;;;;;;;30.98;11.75;;;;;;;1.71;87.98;101460.38;5031930;28;20112;-54
2021/12/11 11:41:58;;;;;;;31.13;12.48;;;;;;;2.34;90.25;101469.94;5028965;28;20032;-51
2021/12/11 11:44:27;;;;;;;201.25;86.82;;;;;;;3.09;88.87;101467.31;5029251;28;20110;-56
2021/12/11 11:47:03;;;;;;;170.52;59.03;;;;;;;3.59;84.80;101476.31;5033194;28;20120;-53
2021/12/11 11:49:35;;;;;;;193.60;72.53;;;;;;;3.63;83.72;101467.84;5038710;28;20056;-56
2021/12/11 11:52:22;;;;;;;313.38;112.82;;;;;;;4.42;83.77;101467.88;5033700;28;20752;-57
2021/12/11 11:54:53;;;;;;;218.43;87.78;;;;;;;4.97;81.99;101476.09;5029499;28;20082;-57
2021/12/11 11:57:24;;;;;;;181.77;74.10;;;;;;;5.24;79.76;101479.75;5030547;28;20055;-57